Time;durP1;ratioP1;P1;durP2;ratioP2;P2;SDS_P1;SDS_P2;PMS_P1;PMS_P2;Temp;Humidity;BMP_temperature;BMP_pressure;BME280_temperature;BME280_humidity;BME280_pressure;Samples;Min_cycle;Max_cycle;Signal;HPM_P1;HPM_P2
2024/02/19 00:02:06;;;;;;;4.83;2.80;;;;;;;2.60;70.43;101899.57;123550;1099;104245;-80
2024/02/19 00:04:37;;;;;;;4.63;2.53;;;;;;;2.59;70.28;101897.74;123579;1099;104364;-80
2024/02/19 00:07:09;;;;;;;4.13;2.63;;;;;;;2.60;69.90;101894.39;123610;1099;104197;-81
2024/02/19 00:09:40;;;;;;;7.73;3.60;;;;;;;2.59;70.35;101894.25;123507;1099;104348;-80
2024/02/19 00:12:12;;;;;;;6.25;3.15;;;;;;;2.58;70.35;101892.42;123561;1099;104214;-80
2024/02/19 00:14:43;;;;;;;6.23;3.53;;;;;;;2.57;70.14;101888.00;123592;1099;104274;-79
2024/02/19 00:17:14;;;;;;;7.50;2.97;;;;;;;2.55;70.43;101890.45;123494;1099;104331;-80
2024/02/19 00:19:46;;;;;;;8.70;3.90;;;;;;;2.53;69.86;101891.11;123541;1099;104337;-80
2024/02/19 00:22:17;;;;;;;5.60;3.00;;;;;;;2.52;70.24;101890.17;123532;1099;104281;-80
2024/02/19 00:24:48;;;;;;;6.03;3.10;;;;;;;2.50;70.08;101890.03;123515;1099;104293;-80
2024/02/19 00:27:19;;;;;;;6.70;2.83;;;;;;;2.49;70.22;101885.65;123578;1098;104258;-80
2024/02/19 00:29:50;;;;;;;6.30;2.73;;;;;;;2.48;70.10;101886.41;123733;1099;104268;-79
2024/02/19 00:32:22;;;;;;;3.77;2.80;;;;;;;2.49;70.18;101885.65;123636;1098;104254;-79
2024/02/19 00:34:53;;;;;;;7.00;2.90;;;;;;;2.48;70.49;101883.81;123416;1099;104341;-79
2024/02/19 00:37:24;;;;;;;6.10;3.03;;;;;;;2.49;70.18;101884.72;123540;1099;104271;-80
2024/02/19 00:39:57;;;;;;;5.80;2.67;;;;;;;2.46;70.06;101881.84;123515;1099;104340;-79
2024/02/19 00:42:29;;;;;;;5.70;2.95;;;;;;;2.43;69.85;101878.98;123558;1099;104274;-80
2024/02/19 00:45:00;;;;;;;4.73;2.60;;;;;;;2.41;69.89;101878.84;123565;1098;104648;-80
2024/02/19 00:47:31;;;;;;;5.25;3.00;;;;;;;2.40;69.63;101881.29;123464;1099;104332;-80
2024/02/19 00:50:03;;;;;;;6.43;3.20;;;;;;;2.41;69.20;101884.02;123599;1099;104258;-80
2024/02/19 00:52:34;;;;;;;4.43;2.70;;;;;;;2.39;70.29;101877.80;123545;1099;104271;-80
2024/02/19 00:55:06;;;;;;;5.07;2.80;;;;;;;2.38;69.55;101878.56;123508;1098;104261;-81
2024/02/19 00:57:38;;;;;;;6.13;2.80;;;;;;;2.38;69.94;101872.48;123523;1099;104367;-80
2024/02/19 01:00:10;;;;;;;5.60;2.90;;;;;;;2.35;69.92;101880.87;123536;1099;104307;-80
2024/02/19 01:02:41;;;;;;;5.50;3.10;;;;;;;2.36;69.59;101874.03;123548;1099;104229;-80
2024/02/19 01:05:13;;;;;;;6.85;2.90;;;;;;;2.37;69.85;101881.95;123532;1099;104272;-80
2024/02/19 01:07:44;;;;;;;5.90;3.03;;;;;;;2.37;69.73;101878.42;123512;1099;104274;-80
2024/02/19 01:10:15;;;;;;;6.43;3.13;;;;;;;2.39;69.35;101879.50;123618;1098;104676;-80
2024/02/19 01:12:46;;;;;;;6.77;3.10;;;;;;;2.40;69.21;101877.05;123458;1099;104290;-80
2024/02/19 01:15:18;;;;;;;6.40;3.00;;;;;;;2.39;69.10;101882.08;123214;1099;104408;-80
2024/02/19 01:17:49;;;;;;;3.83;2.60;;;;;;;2.36;69.07;101874.93;123520;1098;104274;-80
2024/02/19 01:20:20;;;;;;;5.80;3.23;;;;;;;2.34;69.55;101876.48;123608;1099;104350;-80
2024/02/19 01:22:52;;;;;;;7.70;3.13;;;;;;;2.34;69.22;101879.98;123723;1099;104311;-81
2024/02/19 01:25:24;;;;;;;5.10;3.20;;;;;;;2.35;69.24;101878.28;123557;1099;104357;-80
2024/02/19 01:27:55;;;;;;;5.87;2.93;;;;;;;2.32;68.49;101872.83;123610;1099;104345;-79
2024/02/19 01:30:26;;;;;;;5.27;3.10;;;;;;;2.30;68.43;101870.09;123652;1099;104350;-81
2024/02/19 01:32:59;;;;;;;7.07;3.10;;;;;;;2.31;68.85;101865.84;123692;1099;104274;-80
2024/02/19 01:35:32;;;;;;;5.60;2.83;;;;;;;2.32;68.93;101859.88;123469;1098;104293;-80
2024/02/19 01:38:04;;;;;;;4.67;3.10;;;;;;;2.32;68.19;101863.39;123465;1099;104223;-80
2024/02/19 01:40:35;;;;;;;4.33;2.90;;;;;;;2.34;67.99;101858.35;123653;1099;104342;-79
2024/02/19 01:43:09;;;;;;;6.93;3.30;;;;;;;2.34;68.05;101856.66;123603;1099;104271;-79
2024/02/19 01:45:41;;;;;;;5.23;3.03;;;;;;;2.41;69.08;101852.93;123772;1099;104261;-80
2024/02/19 01:48:13;;;;;;;6.43;2.93;;;;;;;2.46;68.75;101854.28;123357;1099;104450;-80
2024/02/19 01:50:46;;;;;;;5.10;3.00;;;;;;;2.48;68.29;101854.41;123567;1099;104362;-80
2024/02/19 01:53:17;;;;;;;5.33;3.17;;;;;;;2.46;69.04;101849.09;123584;1099;104245;-80
2024/02/19 01:55:50;;;;;;;7.23;3.23;;;;;;;2.49;67.87;101840.66;123654;1099;104252;-80
2024/02/19 01:58:21;;;;;;;5.83;3.10;;;;;;;2.53;68.33;101844.47;123789;1099;104692;-80
2024/02/19 02:00:58;;;;;;;7.37;3.47;;;;;;;2.57;69.16;101833.58;123782;1099;104393;-80
2024/02/19 02:03:31;;;;;;;6.80;3.40;;;;;;;2.55;67.88;101850.69;123585;1099;104248;-80
2024/02/19 02:06:03;;;;;;;4.93;3.10;;;;;;;2.51;68.04;101840.05;123825;1099;104338;-80
2024/02/19 02:08:39;;;;;;;7.30;3.27;;;;;;;2.46;68.37;101842.98;123278;1099;104272;-80
2024/02/19 02:11:10;;;;;;;7.73;3.80;;;;;;;2.39;68.19;101848.41;123301;1099;104223;-80
2024/02/19 02:13:41;;;;;;;7.60;3.30;;;;;;;2.33;68.84;101843.57;123492;1099;104367;-80
2024/02/19 02:16:12;;;;;;;5.27;3.07;;;;;;;2.32;68.05;101841.73;123501;1098;104402;-80
2024/02/19 02:18:44;;;;;;;6.67;3.50;;;;;;;2.28;68.19;101840.56;123248;1099;104293;-79
2024/02/19 02:21:16;;;;;;;7.33;3.63;;;;;;;2.26;67.71;101838.59;123565;1099;104345;-79
2024/02/19 02:23:47;;;;;;;5.43;3.20;;;;;;;2.22;68.02;101839.11;123649;1099;104361;-80
2024/02/19 02:26:19;;;;;;;6.10;3.50;;;;;;;2.25;68.41;101834.20;123592;1099;104411;-80
2024/02/19 02:28:50;;;;;;;5.50;3.20;;;;;;;2.25;67.33;101824.74;123502;1099;104431;-80
2024/02/19 02:31:21;;;;;;;8.67;3.30;;;;;;;2.23;67.45;101827.95;123615;1099;104211;-80
2024/02/19 02:33:52;;;;;;;6.17;3.37;;;;;;;2.21;67.29;101824.33;123583;1099;104335;-80
2024/02/19 02:36:24;;;;;;;5.67;3.27;;;;;;;2.21;67.79;101839.87;123672;1099;104345;-80
2024/02/19 02:38:55;;;;;;;6.43;3.50;;;;;;;2.18;67.71;101829.23;123777;1099;104200;-80
2024/02/19 02:41:26;;;;;;;7.77;3.60;;;;;;;2.15;67.84;101820.42;123418;1099;104306;-80
2024/02/19 02:43:57;;;;;;;7.33;3.70;;;;;;;2.12;67.76;101821.80;123538;1098;104272;-81
2024/02/19 02:46:28;;;;;;;6.95;3.40;;;;;;;2.09;67.36;101822.45;123536;1099;104221;-80
2024/02/19 02:49:00;;;;;;;7.20;3.60;;;;;;;2.08;67.37;101823.22;123315;1099;104219;-80
2024/02/19 02:51:31;;;;;;;8.23;3.73;;;;;;;2.11;67.64;101822.59;123639;1099;104320;-80
2024/02/19 02:54:03;;;;;;;8.00;3.95;;;;;;;2.17;67.62;101815.38;123732;1099;104313;-80
2024/02/19 02:56:34;;;;;;;12.13;6.03;;;;;;;2.17;66.80;101823.16;123625;1098;104354;-80
2024/02/19 02:59:05;;;;;;;17.40;7.60;;;;;;;2.15;67.03;101832.44;123559;1098;104258;-79
2024/02/19 03:01:37;;;;;;;16.27;6.90;;;;;;;2.13;67.08;101827.13;123556;1098;104197;-80
2024/02/19 03:04:08;;;;;;;16.50;7.70;;;;;;;2.14;67.23;101828.05;123514;1099;104673;-80
2024/02/19 03:06:40;;;;;;;11.73;5.57;;;;;;;2.12;67.21;101833.09;123549;1099;104428;-80
2024/02/19 03:09:11;;;;;;;11.77;5.50;;;;;;;2.10;67.00;101829.47;123510;1099;104219;-79
2024/02/19 03:11:42;;;;;;;15.60;7.57;;;;;;;2.08;67.16;101836.16;123511;1099;109512;-80
2024/02/19 03:14:13;;;;;;;15.57;6.53;;;;;;;2.07;66.76;101834.37;123339;1099;104251;-79
2024/02/19 03:16:44;;;;;;;13.30;6.30;;;;;;;2.07;66.85;101831.77;123627;1099;104229;-80
2024/02/19 03:19:16;;;;;;;11.50;5.10;;;;;;;2.08;66.78;101835.27;123544;1099;104277;-80
2024/02/19 03:21:48;;;;;;;10.00;4.63;;;;;;;2.05;66.34;101835.88;123231;1099;104357;-80
2024/02/19 03:24:19;;;;;;;8.55;4.40;;;;;;;2.06;66.78;101831.64;123602;1099;104389;-80
2024/02/19 03:26:51;;;;;;;7.90;4.20;;;;;;;2.09;66.67;101840.58;123458;1099;104232;-80
2024/02/19 03:29:22;;;;;;;9.73;4.83;;;;;;;2.10;67.19;101845.00;123732;1099;104313;-80
2024/02/19 03:31:54;;;;;;;10.27;4.60;;;;;;;2.09;66.43;101843.17;123662;1099;104325;-80
2024/02/19 03:34:25;;;;;;;9.67;4.70;;;;;;;2.09;67.41;101848.35;123785;1099;104347;-80
2024/02/19 03:36:56;;;;;;;7.10;4.65;;;;;;;2.13;66.38;101841.77;123864;1099;104351;-80
2024/02/19 03:39:28;;;;;;;11.27;5.33;;;;;;;2.13;66.14;101845.25;123967;1099;104242;-80
2024/02/19 03:42:00;;;;;;;9.73;4.53;;;;;;;2.13;66.55;101845.25;123613;1099;104687;-79
2024/02/19 03:44:32;;;;;;;12.20;5.17;;;;;;;2.10;67.07;101845.00;123531;1099;104262;-80
2024/02/19 03:47:03;;;;;;;14.15;5.55;;;;;;;2.13;66.69;101839.17;123267;1099;104348;-80
2024/02/19 03:49:34;;;;;;;9.27;4.90;;;;;;;2.16;66.69;101837.76;123680;1099;104274;-80
2024/02/19 03:52:06;;;;;;;8.33;4.53;;;;;;;2.18;65.99;101834.41;123539;1099;104245;-80
2024/02/19 03:54:37;;;;;;;11.47;5.13;;;;;;;2.14;66.61;101836.72;123244;1099;104419;-79
2024/02/19 03:57:09;;;;;;;10.70;5.40;;;;;;;2.11;66.27;101840.72;123533;1099;104377;-79
2024/02/19 03:59:40;;;;;;;8.30;4.80;;;;;;;2.10;66.90;101837.23;123554;1099;104265;-80
2024/02/19 04:02:11;;;;;;;8.10;4.83;;;;;;;2.14;66.73;101831.54;123336;1099;104351;-79
2024/02/19 04:04:43;;;;;;;10.47;4.43;;;;;;;2.18;66.83;101826.64;123629;1099;104227;-79
2024/02/19 04:07:14;;;;;;;11.07;5.03;;;;;;;2.14;66.46;101830.64;123454;1098;104348;-79
2024/02/19 04:09:46;;;;;;;8.67;4.50;;;;;;;2.08;66.43;101825.80;123560;1098;104207;-80
2024/02/19 04:12:18;;;;;;;9.37;4.77;;;;;;;2.05;66.68;101825.53;123250;1099;104234;-80
2024/02/19 04:14:51;;;;;;;11.23;4.70;;;;;;;2.03;66.19;101826.18;123537;1099;104307;-80
2024/02/19 04:17:22;;;;;;;8.83;4.72;;;;;;;2.02;66.43;101820.06;123295;1099;104268;-80
2024/02/19 04:19:56;;;;;;;8.00;4.10;;;;;;;2.03;66.82;101827.08;123545;1099;104364;-81
2024/02/19 04:22:28;;;;;;;13.43;4.80;;;;;;;2.05;66.61;101829.80;123482;1099;104307;-80
2024/02/19 04:24:59;;;;;;;9.53;4.60;;;;;;;2.05;66.71;101829.80;123540;1099;104344;-80
2024/02/19 04:27:30;;;;;;;9.80;4.37;;;;;;;2.03;66.66;101829.66;123527;1099;104303;-80
2024/02/19 04:30:01;;;;;;;12.33;5.07;;;;;;;2.06;67.00;101834.23;123647;1099;104401;-81
2024/02/19 04:32:32;;;;;;;9.20;4.50;;;;;;;2.12;66.45;101829.57;123718;1099;104399;-81
2024/02/19 04:35:04;;;;;;;14.53;4.67;;;;;;;2.14;66.93;101828.05;123567;1099;104315;-80
2024/02/19 04:37:35;;;;;;;11.53;4.50;;;;;;;2.15;67.01;101820.42;123515;1099;104271;-80
2024/02/19 04:40:12;;;;;;;11.23;4.70;;;;;;;2.14;66.91;101830.64;123278;1099;104361;-80
2024/02/19 04:42:43;;;;;;;16.40;5.40;;;;;;;2.10;66.37;101829.47;123609;1099;105595;-80
2024/02/19 04:45:15;;;;;;;11.33;4.67;;;;;;;2.08;67.11;101830.98;123547;1099;104367;-79
2024/02/19 04:47:46;;;;;;;11.43;4.50;;;;;;;2.08;67.45;101830.98;123552;1099;104648;-81
2024/02/19 04:50:17;;;;;;;10.03;4.23;;;;;;;2.05;66.60;101822.94;123549;1099;104376;-81
2024/02/19 04:52:49;;;;;;;9.47;4.03;;;;;;;2.04;67.03;101822.80;123502;1098;104373;-80
2024/02/19 04:55:20;;;;;;;12.55;4.25;;;;;;;2.06;66.95;101829.95;123675;1099;104274;-81
2024/02/19 04:57:51;;;;;;;15.27;4.37;;;;;;;2.10;67.28;101820.77;123616;1099;104319;-80
2024/02/19 05:00:23;;;;;;;11.00;4.40;;;;;;;2.08;67.01;101818.03;123552;1099;104325;-79
2024/02/19 05:02:54;;;;;;;12.40;5.33;;;;;;;2.06;66.67;101818.69;123686;1099;104692;-79
2024/02/19 05:05:26;;;;;;;11.77;5.07;;;;;;;1.98;66.66;101823.17;123622;1099;104221;-80
2024/02/19 05:07:57;;;;;;;18.50;5.40;;;;;;;1.89;66.93;101823.22;123657;1099;104268;-80
2024/02/19 05:10:28;;;;;;;11.83;5.27;;;;;;;1.87;67.08;101821.25;123938;1099;104236;-80
2024/02/19 05:12:59;;;;;;;15.97;5.83;;;;;;;1.91;66.96;101821.67;123635;1099;104241;-80
2024/02/19 05:15:30;;;;;;;11.93;5.33;;;;;;;1.95;67.32;101826.37;123471;1099;104443;-79
2024/02/19 05:18:02;;;;;;;11.85;5.10;;;;;;;1.98;66.83;101816.30;123907;1099;104258;-80
2024/02/19 05:20:35;;;;;;;11.60;5.03;;;;;;;2.04;67.83;101821.14;123702;1099;104253;-80
2024/02/19 05:23:06;;;;;;;13.33;4.90;;;;;;;2.05;67.42;101820.34;123551;1099;104368;-80
2024/02/19 05:25:38;;;;;;;11.63;5.70;;;;;;;2.04;67.01;101823.73;123791;1099;104227;-80
2024/02/19 05:28:09;;;;;;;14.07;5.37;;;;;;;2.05;67.40;101820.34;123555;1099;104855;-80
2024/02/19 05:30:40;;;;;;;12.27;5.40;;;;;;;2.03;66.96;101810.64;123786;1099;104723;-80
2024/02/19 05:33:12;;;;;;;11.37;5.37;;;;;;;2.05;68.01;101815.17;123911;1098;104319;-80
2024/02/19 05:35:44;;;;;;;11.83;4.77;;;;;;;2.07;67.78;101807.54;123896;1099;104232;-79
2024/02/19 05:38:16;;;;;;;7.93;4.13;;;;;;;2.11;67.42;101810.55;123834;1099;104363;-80
2024/02/19 05:40:47;;;;;;;9.83;4.27;;;;;;;2.17;67.76;101812.80;123966;1099;104268;-80
2024/02/19 05:43:18;;;;;;;7.57;3.40;;;;;;;2.22;67.08;101815.80;123559;1099;104341;-81
2024/02/19 05:45:57;;;;;;;7.23;3.30;;;;;;;2.17;65.84;101817.97;124059;1098;104229;-80
2024/02/19 05:49:11;;;;;;;6.73;3.37;;;;;;;2.10;65.77;101818.17;124344;1099;104435;-79
2024/02/19 05:52:04;;;;;;;15.93;4.93;;;;;;;2.10;66.92;101818.17;124088;1099;104384;-78
2024/02/19 05:54:51;;;;;;;13.03;4.47;;;;;;;2.12;66.90;101809.78;124206;1099;104739;-79
2024/02/19 05:57:24;;;;;;;11.33;5.13;;;;;;;2.16;66.86;101819.63;124201;1099;104274;-77
2024/02/19 06:00:21;;;;;;;9.60;3.80;;;;;;;2.15;66.50;101815.25;124291;1099;104357;-79
2024/02/19 06:03:03;;;;;;;12.10;3.73;;;;;;;2.22;66.71;101819.29;124778;1099;104188;-79
2024/02/19 06:05:34;;;;;;;8.97;3.50;;;;;;;2.28;66.25;101819.84;123927;1099;104319;-79
2024/02/19 06:08:06;;;;;;;10.00;4.00;;;;;;;2.32;66.21;101823.61;124299;1099;104626;-79
2024/02/19 06:10:46;;;;;;;9.97;4.13;;;;;;;2.38;66.41;101816.39;124019;1099;104380;-78
2024/02/19 06:13:17;;;;;;;5.17;3.63;;;;;;;2.42;66.04;101825.36;124162;1099;103291;-79
2024/02/19 06:15:49;;;;;;;12.33;4.00;;;;;;;2.47;65.62;101819.80;123919;1099;104320;-80
2024/02/19 06:18:21;;;;;;;10.20;3.87;;;;;;;2.49;65.97;101820.88;124311;1098;104731;-79
2024/02/19 06:20:52;;;;;;;7.43;3.90;;;;;;;2.53;66.16;101822.05;124205;1099;104273;-79
2024/02/19 06:23:24;;;;;;;7.85;3.80;;;;;;;2.50;65.26;101827.84;124383;1099;104211;-80
2024/02/19 06:25:55;;;;;;;7.57;3.70;;;;;;;2.42;64.92;101823.67;124577;1098;104382;-79
2024/02/19 06:28:27;;;;;;;8.13;3.47;;;;;;;2.39;65.49;101822.50;123955;1099;104329;-79
2024/02/19 06:30:59;;;;;;;7.57;3.77;;;;;;;2.41;64.53;101821.84;124303;1099;104300;-79
2024/02/19 06:33:30;;;;;;;10.63;4.37;;;;;;;2.42;64.61;101821.08;124528;1099;104251;-79
2024/02/19 06:36:02;;;;;;;10.57;4.27;;;;;;;2.46;63.88;101819.66;124092;1099;104172;-79
2024/02/19 06:38:34;;;;;;;7.53;4.10;;;;;;;2.51;64.54;101815.83;124709;1099;104175;-79
2024/02/19 06:41:05;;;;;;;7.07;4.03;;;;;;;2.55;64.25;101820.48;124140;1102;104316;-79
2024/02/19 06:43:37;;;;;;;9.63;4.50;;;;;;;2.59;63.71;101826.87;124927;1099;104297;-79
2024/02/19 06:46:09;;;;;;;12.33;4.30;;;;;;;2.63;64.85;101821.17;124710;1099;104759;-79
2024/02/19 06:48:41;;;;;;;9.93;3.80;;;;;;;2.64;62.63;101830.77;124878;1099;104274;-81
2024/02/19 06:51:12;;;;;;;10.47;4.33;;;;;;;2.62;62.65;101822.86;124846;1099;104204;-79
2024/02/19 06:53:45;;;;;;;6.87;4.00;;;;;;;2.68;63.44;101822.47;124383;1099;104386;-80
2024/02/19 06:56:16;;;;;;;11.37;4.30;;;;;;;2.78;63.53;101825.12;124987;1098;107146;-79
2024/02/19 06:58:47;;;;;;;7.47;4.00;;;;;;;2.89;62.82;101828.66;125158;1097;104219;-78
2024/02/19 07:01:19;;;;;;;9.90;4.20;;;;;;;2.90;62.76;101825.30;124652;1099;104255;-79
2024/02/19 07:03:51;;;;;;;9.27;4.40;;;;;;;2.92;62.02;101835.80;124800;1099;104246;-79
2024/02/19 07:06:22;;;;;;;10.57;4.70;;;;;;;2.94;62.55;101836.84;124804;1099;118948;-78
2024/02/19 07:08:53;;;;;;;8.60;4.20;;;;;;;2.93;61.35;101835.01;124947;1099;104268;-79
2024/02/19 07:11:25;;;;;;;7.45;4.15;;;;;;;2.98;62.31;101833.75;124798;1099;104351;-79
2024/02/19 07:13:57;;;;;;;8.60;4.20;;;;;;;2.99;62.10;101832.95;124738;1099;104726;-80
2024/02/19 07:16:29;;;;;;;5.95;3.85;;;;;;;2.95;60.87;101831.78;124316;1099;104245;-79
2024/02/19 07:19:00;;;;;;;5.17;3.57;;;;;;;2.97;61.47;101827.63;124763;1099;104254;-78
2024/02/19 07:21:32;;;;;;;7.13;4.00;;;;;;;3.00;61.17;101829.59;124220;1099;104182;-79
2024/02/19 07:24:04;;;;;;;10.40;4.75;;;;;;;3.04;61.18;101829.10;124746;1098;104322;-79
2024/02/19 07:26:36;;;;;;;9.40;3.97;;;;;;;3.08;61.15;101828.57;124261;1099;104284;-80
2024/02/19 07:29:07;;;;;;;10.70;4.20;;;;;;;3.13;61.24;101837.69;124571;1099;104189;-80
2024/02/19 07:31:42;;;;;;;10.90;3.97;;;;;;;3.21;61.81;101826.28;124758;1099;104211;-78
2024/02/19 07:34:13;;;;;;;10.20;4.17;;;;;;;3.28;61.77;101821.62;124979;1099;104229;-79
2024/02/19 07:36:45;;;;;;;7.30;3.70;;;;;;;3.34;59.96;101828.23;124990;1099;104226;-78
2024/02/19 07:39:20;;;;;;;6.70;3.90;;;;;;;3.34;60.45;101829.94;124420;1099;104226;-78
2024/02/19 07:41:51;;;;;;;6.67;3.90;;;;;;;3.38;60.37;101826.80;125320;1099;104255;-79
2024/02/19 07:44:22;;;;;;;7.83;4.00;;;;;;;3.47;60.82;101830.19;124628;1099;102333;-79
2024/02/19 07:46:54;;;;;;;6.47;3.90;;;;;;;3.53;60.86;101828.11;124950;1099;104241;-79
2024/02/19 07:49:27;;;;;;;7.63;4.00;;;;;;;3.59;60.25;101831.23;125014;1099;104272;-77
2024/02/19 07:52:00;;;;;;;6.40;3.50;;;;;;;3.61;60.11;101828.77;124633;1099;104153;-77
2024/02/19 07:54:31;;;;;;;5.53;3.40;;;;;;;3.63;60.04;101828.89;124916;1099;102636;-76
2024/02/19 07:57:02;;;;;;;4.43;3.40;;;;;;;3.65;59.78;101824.77;124855;1099;104265;-75
2024/02/19 07:59:34;;;;;;;7.23;3.67;;;;;;;3.74;59.59;101816.05;124878;1099;102078;-77
2024/02/19 08:02:06;;;;;;;5.77;3.60;;;;;;;3.81;59.38;101820.06;124676;1099;104278;-80
2024/02/19 08:04:38;;;;;;;8.33;3.47;;;;;;;3.88;59.94;101824.08;124591;1099;104254;-77
2024/02/19 08:07:09;;;;;;;7.43;3.80;;;;;;;3.93;59.65;101815.91;125114;1099;104169;-78
2024/02/19 08:09:41;;;;;;;8.80;3.30;;;;;;;4.01;59.69;101819.14;124790;1099;104284;-77
2024/02/19 08:12:13;;;;;;;7.80;3.70;;;;;;;4.07;61.00;101816.16;125053;1099;104370;-77
2024/02/19 08:14:45;;;;;;;5.53;3.37;;;;;;;4.16;60.39;101821.18;124985;1099;104195;-77
2024/02/19 08:17:17;;;;;;;9.57;3.73;;;;;;;4.29;60.60;101814.52;124895;1099;103500;-73
2024/02/19 08:19:48;;;;;;;11.13;4.00;;;;;;;4.41;60.86;101811.10;124827;1099;104201;-73
2024/02/19 08:22:20;;;;;;;8.40;3.70;;;;;;;4.44;58.28;101816.55;124667;1099;104339;-76
2024/02/19 08:24:51;;;;;;;6.23;3.33;;;;;;;4.41;59.87;101805.91;124824;1099;104223;-76
2024/02/19 08:27:23;;;;;;;8.70;3.50;;;;;;;4.44;59.77;101801.89;124837;1099;104172;-76
2024/02/19 08:29:55;;;;;;;8.97;3.27;;;;;;;4.46;59.34;101802.02;124996;1099;104172;-77
2024/02/19 08:32:26;;;;;;;8.67;3.27;;;;;;;4.55;60.08;101801.83;125161;1098;104219;-76
2024/02/19 08:34:59;;;;;;;4.57;2.70;;;;;;;4.66;59.75;101795.82;124779;1099;104318;-76
2024/02/19 08:37:31;;;;;;;5.70;3.17;;;;;;;4.61;57.18;101797.13;124809;1099;104698;-76
2024/02/19 08:40:03;;;;;;;7.03;3.07;;;;;;;4.63;59.01;101800.78;124188;1099;104236;-75
2024/02/19 08:42:36;;;;;;;4.53;3.00;;;;;;;4.69;59.12;101796.06;124854;1099;104223;-76
2024/02/19 08:45:13;;;;;;;8.80;3.20;;;;;;;4.78;58.70;101794.17;124812;1099;102565;-75
2024/02/19 08:47:47;;;;;;;7.17;2.83;;;;;;;4.93;59.00;101796.20;124524;1099;104328;-78
2024/02/19 08:50:19;;;;;;;7.33;3.50;;;;;;;5.01;58.33;101798.59;124956;1099;104232;-78
2024/02/19 08:52:50;;;;;;;6.10;3.00;;;;;;;4.98;55.87;101794.86;125002;1098;104271;-78
2024/02/19 08:55:21;;;;;;;5.03;3.10;;;;;;;4.95;57.61;101803.31;125272;1099;104222;-77
2024/02/19 08:57:52;;;;;;;5.30;3.10;;;;;;;4.88;58.10;101800.10;125105;1099;104271;-78
2024/02/19 09:00:25;;;;;;;4.93;2.57;;;;;;;4.93;58.29;101789.29;125122;1099;104168;-78
2024/02/19 09:02:59;;;;;;;6.93;3.23;;;;;;;5.12;59.06;101795.94;124619;1099;104427;-78
2024/02/19 09:05:30;;;;;;;7.03;3.10;;;;;;;5.21;58.67;101797.56;125330;1099;103176;-78
2024/02/19 09:08:06;;;;;;;4.60;3.00;;;;;;;5.20;58.80;101793.16;125131;1097;104214;-78
2024/02/19 09:10:40;;;;;;;4.83;2.93;;;;;;;5.21;58.66;101805.37;125111;1099;104214;-78
2024/02/19 09:13:13;;;;;;;5.43;2.97;;;;;;;5.24;58.38;101796.91;125189;1099;104197;-78
2024/02/19 09:15:46;;;;;;;12.93;5.00;;;;;;;5.33;59.27;101797.62;124958;1099;104137;-77
2024/02/19 09:18:17;;;;;;;9.60;3.73;;;;;;;5.43;58.09;101801.83;125004;1098;104251;-77
2024/02/19 09:20:48;;;;;;;7.20;3.20;;;;;;;5.50;58.50;101790.19;125062;1099;104197;-78
2024/02/19 09:23:19;;;;;;;7.83;3.30;;;;;;;5.53;58.86;101793.95;125138;1099;103422;-78
2024/02/19 09:25:51;;;;;;;8.47;3.80;;;;;;;5.57;57.87;101795.08;125047;1099;104416;-79
2024/02/19 09:28:24;;;;;;;6.33;3.50;;;;;;;5.49;57.56;101788.39;124823;1099;104338;-80
2024/02/19 09:31:14;;;;;;;7.42;3.45;;;;;;;5.49;57.92;101786.69;124952;1099;104268;-76
2024/02/19 09:33:49;;;;;;;7.45;3.75;;;;;;;5.55;58.57;101794.07;125021;1099;104315;-78
2024/02/19 09:36:21;;;;;;;6.10;3.40;;;;;;;5.65;58.63;101788.75;125167;1099;104240;-76
2024/02/19 09:38:53;;;;;;;10.13;3.80;;;;;;;5.70;57.40;101784.83;124893;1099;104380;-77
2024/02/19 09:41:24;;;;;;;14.50;3.67;;;;;;;5.78;57.65;101788.02;124813;1099;104240;-78
2024/02/19 09:43:56;;;;;;;5.73;3.60;;;;;;;5.86;58.22;101784.28;124826;1099;104264;-80
2024/02/19 09:46:27;;;;;;;9.50;4.13;;;;;;;5.94;57.73;101779.64;124577;1099;104332;-78
2024/02/19 09:49:01;;;;;;;12.60;4.47;;;;;;;5.98;57.79;101773.88;125034;1099;104248;-76
2024/02/19 09:51:38;;;;;;;8.30;3.67;;;;;;;6.03;57.80;101769.94;125081;1099;104242;-76
2024/02/19 09:54:12;;;;;;;8.97;3.80;;;;;;;6.13;58.15;101775.84;125127;1099;104264;-76
2024/02/19 09:56:45;;;;;;;8.07;4.00;;;;;;;6.18;58.32;101777.08;125029;1099;104239;-76
2024/02/19 09:59:20;;;;;;;7.87;3.80;;;;;;;6.24;57.24;101778.42;125044;1099;104245;-77
2024/02/19 10:01:50;;;;;;;;;;;;;;;6.05;54.57;101763.13;125258;1099;102378;-77
2024/02/19 10:04:26;;;;;;;8.15;3.85;;;;;;;5.92;55.96;101761.30;125111;1099;102823;-77
2024/02/19 10:07:02;;;;;;;9.57;3.63;;;;;;;5.93;56.97;101757.87;124843;1099;102912;-78
2024/02/19 10:09:35;;;;;;;6.40;3.50;;;;;;;5.98;56.91;101754.75;125062;1099;104184;-78
2024/02/19 10:12:11;;;;;;;9.83;3.90;;;;;;;5.96;56.60;101745.89;125185;1099;103887;-78
2024/02/19 10:14:42;;;;;;;11.93;3.80;;;;;;;6.02;56.67;101747.27;125028;1099;104217;-79
2024/02/19 10:17:20;;;;;;;5.77;3.53;;;;;;;6.08;57.05;101752.05;125160;1099;104405;-78
2024/02/19 10:20:01;;;;;;;7.13;3.93;;;;;;;6.13;56.86;101745.46;125031;1099;104174;-79
2024/02/19 10:22:33;;;;;;;8.47;3.77;;;;;;;6.15;56.59;101737.75;125091;1099;104197;-80
2024/02/19 10:25:08;;;;;;;9.57;4.13;;;;;;;6.10;56.50;101733.09;125153;1099;104175;-80
2024/02/19 10:27:40;;;;;;;5.93;3.70;;;;;;;6.20;56.52;101731.16;125132;1099;104242;-78
2024/02/19 10:30:14;;;;;;;8.93;3.73;;;;;;;6.28;57.09;101735.27;125435;1099;103943;-78
2024/02/19 10:32:46;;;;;;;8.73;3.87;;;;;;;6.35;56.87;101731.39;125502;1099;104271;-79
2024/02/19 10:35:17;;;;;;;8.73;3.73;;;;;;;6.42;57.37;101718.91;125476;1099;104661;-78
2024/02/19 10:37:49;;;;;;;8.90;4.10;;;;;;;6.46;56.56;101718.31;125418;1099;104176;-78
2024/02/19 10:40:23;;;;;;;8.77;3.73;;;;;;;6.46;56.46;101710.48;124995;1099;105786;-78
2024/02/19 10:42:57;;;;;;;7.50;3.80;;;;;;;6.52;56.77;101709.14;124873;1099;104240;-78
2024/02/19 10:45:29;;;;;;;13.53;4.28;;;;;;;6.59;56.81;101709.69;124877;1099;104229;-78
2024/02/19 10:48:01;;;;;;;8.30;4.03;;;;;;;6.57;56.32;101706.04;124877;1099;104261;-77
2024/02/19 10:50:35;;;;;;;9.47;4.23;;;;;;;6.56;56.59;101696.42;125342;1099;105399;-77
2024/02/19 10:53:11;;;;;;;11.17;4.10;;;;;;;6.60;57.05;101692.32;125427;1099;104200;-77
2024/02/19 10:55:45;;;;;;;8.30;4.00;;;;;;;6.61;56.13;101692.43;125300;1099;103111;-77
2024/02/19 10:58:24;;;;;;;9.60;4.50;;;;;;;6.53;55.42;101690.06;124638;1099;102986;-77
2024/02/19 11:00:58;;;;;;;9.47;4.27;;;;;;;6.39;54.73;101692.61;125245;1099;104169;-78
2024/02/19 11:03:49;;;;;;;11.47;4.80;;;;;;;6.37;55.60;101682.86;124839;1099;102512;-78
2024/02/19 11:06:25;;;;;;;12.07;4.60;;;;;;;6.34;55.64;101682.64;125454;1099;104252;-78
2024/02/19 11:08:57;;;;;;;10.03;4.10;;;;;;;6.34;55.80;101678.32;125130;1099;102236;-78
2024/02/19 11:11:28;;;;;;;8.33;4.63;;;;;;;6.39;55.71;101682.19;125227;1099;107103;-78
2024/02/19 11:14:02;;;;;;;10.27;4.60;;;;;;;6.29;55.78;101675.42;125157;1099;104133;-78
2024/02/19 11:16:36;;;;;;;11.88;4.55;;;;;;;6.22;54.30;101672.26;125194;1099;104221;-77
2024/02/19 11:19:07;;;;;;;8.27;4.83;;;;;;;6.10;54.25;101670.55;125072;1099;104241;-77
2024/02/19 11:21:38;;;;;;;7.50;4.63;;;;;;;6.02;54.11;101671.70;125082;1099;102233;-79
2024/02/19 11:24:11;;;;;;;9.50;4.30;;;;;;;5.99;54.77;101662.77;125140;1099;102442;-78
2024/02/19 11:26:43;;;;;;;10.27;4.60;;;;;;;6.00;54.73;101660.28;125060;1099;104232;-80
2024/02/19 11:29:20;;;;;;;9.90;4.90;;;;;;;6.04;54.54;101649.27;125249;1099;104277;-81
2024/02/19 11:32:02;;;;;;;12.30;5.03;;;;;;;6.10;54.25;101648.81;125169;1099;104274;-81
2024/02/19 11:34:34;;;;;;;9.87;4.60;;;;;;;6.13;54.09;101646.42;125159;1099;104139;-80
2024/02/19 11:37:08;;;;;;;12.13;4.80;;;;;;;6.24;54.45;101641.98;125235;1099;103048;-80
2024/02/19 11:39:42;;;;;;;11.13;4.93;;;;;;;6.28;54.94;101631.88;125200;1099;104050;-80